sensor_id;sensor_type;location;lat;lon;timestamp;P1;durP1;ratioP1;P2;durP2;ratioP2
35488;SDS011;21602;55.670;37.578;2023-03-17T00:00:20;3.70;;;2.38;;
35488;SDS011;21602;55.670;37.578;2023-03-17T00:02:47;5.65;;;3.10;;
35488;SDS011;21602;55.670;37.578;2023-03-17T00:05:15;5.00;;;2.92;;
35488;SDS011;21602;55.670;37.578;2023-03-17T00:07:51;5.53;;;2.80;;
35488;SDS011;21602;55.670;37.578;2023-03-17T00:10:21;6.38;;;2.88;;
35488;SDS011;21602;55.670;37.578;2023-03-17T00:12:50;5.60;;;3.20;;
35488;SDS011;21602;55.670;37.578;2023-03-17T00:15:24;4.78;;;2.47;;
35488;SDS011;21602;55.670;37.578;2023-03-17T00:17:52;5.72;;;2.78;;
35488;SDS011;21602;55.670;37.578;2023-03-17T00:22:45;4.22;;;2.70;;
35488;SDS011;21602;55.670;37.578;2023-03-17T00:25:16;4.00;;;2.65;;
35488;SDS011;21602;55.670;37.578;2023-03-17T00:27:44;6.13;;;2.67;;
35488;SDS011;21602;55.670;37.578;2023-03-17T00:30:10;4.18;;;2.20;;
35488;SDS011;21602;55.670;37.578;2023-03-17T00:32:37;3.53;;;2.42;;
35488;SDS011;21602;55.670;37.578;2023-03-17T00:35:08;6.72;;;3.20;;
35488;SDS011;21602;55.670;37.578;2023-03-17T00:37:40;3.95;;;2.58;;
35488;SDS011;21602;55.670;37.578;2023-03-17T00:40:16;4.25;;;2.10;;
35488;SDS011;21602;55.670;37.578;2023-03-17T00:42:44;3.35;;;2.45;;
35488;SDS011;21602;55.670;37.578;2023-03-17T00:45:10;7.53;;;2.55;;
35488;SDS011;21602;55.670;37.578;2023-03-17T00:47:36;4.97;;;2.70;;
35488;SDS011;21602;55.670;37.578;2023-03-17T00:50:05;4.65;;;2.50;;
35488;SDS011;21602;55.670;37.578;2023-03-17T00:52:34;7.60;;;2.85;;
35488;SDS011;21602;55.670;37.578;2023-03-17T00:55:01;3.97;;;2.72;;
35488;SDS011;21602;55.670;37.578;2023-03-17T00:57:28;10.60;;;3.35;;
35488;SDS011;21602;55.670;37.578;2023-03-17T00:59:54;4.43;;;2.90;;
35488;SDS011;21602;55.670;37.578;2023-03-17T01:02:21;6.25;;;3.47;;
35488;SDS011;21602;55.670;37.578;2023-03-17T01:04:47;7.03;;;3.72;;
35488;SDS011;21602;55.670;37.578;2023-03-17T01:07:13;5.32;;;3.20;;
35488;SDS011;21602;55.670;37.578;2023-03-17T01:09:39;9.32;;;3.60;;
35488;SDS011;21602;55.670;37.578;2023-03-17T01:12:07;7.85;;;3.60;;
35488;SDS011;21602;55.670;37.578;2023-03-17T01:14:36;6.85;;;3.20;;
35488;SDS011;21602;55.670;37.578;2023-03-17T01:17:04;5.72;;;3.53;;
35488;SDS011;21602;55.670;37.578;2023-03-17T01:19:37;6.47;;;4.43;;
35488;SDS011;21602;55.670;37.578;2023-03-17T01:22:03;7.25;;;4.18;;
35488;SDS011;21602;55.670;37.578;2023-03-17T01:24:28;9.73;;;3.95;;
35488;SDS011;21602;55.670;37.578;2023-03-17T01:26:55;5.93;;;4.00;;
35488;SDS011;21602;55.670;37.578;2023-03-17T01:29:20;6.75;;;3.47;;
35488;SDS011;21602;55.670;37.578;2023-03-17T01:31:46;7.25;;;3.85;;
35488;SDS011;21602;55.670;37.578;2023-03-17T01:34:12;5.50;;;3.85;;
35488;SDS011;21602;55.670;37.578;2023-03-17T01:36:40;6.38;;;3.63;;
35488;SDS011;21602;55.670;37.578;2023-03-17T01:39:07;5.70;;;3.65;;
35488;SDS011;21602;55.670;37.578;2023-03-17T01:41:34;8.27;;;3.75;;
35488;SDS011;21602;55.670;37.578;2023-03-17T01:44:00;5.63;;;3.53;;
35488;SDS011;21602;55.670;37.578;2023-03-17T01:46:33;4.95;;;3.22;;
35488;SDS011;21602;55.670;37.578;2023-03-17T01:52:03;5.53;;;2.90;;
35488;SDS011;21602;55.670;37.578;2023-03-17T01:54:34;6.03;;;3.15;;
35488;SDS011;21602;55.670;37.578;2023-03-17T01:57:15;5.45;;;2.45;;
35488;SDS011;21602;55.670;37.578;2023-03-17T01:59:58;3.22;;;2.53;;
35488;SDS011;21602;55.670;37.578;2023-03-17T02:02:43;3.85;;;2.20;;
35488;SDS011;21602;55.670;37.578;2023-03-17T02:05:15;2.88;;;1.85;;
35488;SDS011;21602;55.670;37.578;2023-03-17T02:07:47;2.78;;;1.95;;
35488;SDS011;21602;55.670;37.578;2023-03-17T02:10:14;5.97;;;2.03;;
35488;SDS011;21602;55.670;37.578;2023-03-17T02:12:43;3.10;;;1.92;;
35488;SDS011;21602;55.670;37.578;2023-03-17T02:15:12;3.92;;;2.53;;
35488;SDS011;21602;55.670;37.578;2023-03-17T02:17:39;3.40;;;2.08;;
35488;SDS011;21602;55.670;37.578;2023-03-17T02:22:40;3.20;;;1.77;;
35488;SDS011;21602;55.670;37.578;2023-03-17T02:25:07;5.82;;;2.35;;
35488;SDS011;21602;55.670;37.578;2023-03-17T02:27:35;3.08;;;2.10;;
35488;SDS011;21602;55.670;37.578;2023-03-17T02:30:06;3.47;;;2.22;;
35488;SDS011;21602;55.670;37.578;2023-03-17T02:32:35;6.13;;;2.42;;
35488;SDS011;21602;55.670;37.578;2023-03-17T02:35:02;5.05;;;2.40;;
35488;SDS011;21602;55.670;37.578;2023-03-17T02:37:29;5.05;;;2.63;;
35488;SDS011;21602;55.670;37.578;2023-03-17T02:39:58;6.28;;;2.22;;
35488;SDS011;21602;55.670;37.578;2023-03-17T02:42:25;5.25;;;2.60;;
35488;SDS011;21602;55.670;37.578;2023-03-17T02:44:51;5.88;;;2.47;;
35488;SDS011;21602;55.670;37.578;2023-03-17T02:47:17;8.05;;;2.90;;
35488;SDS011;21602;55.670;37.578;2023-03-17T02:49:43;6.07;;;2.85;;
35488;SDS011;21602;55.670;37.578;2023-03-17T02:52:09;5.45;;;2.80;;
35488;SDS011;21602;55.670;37.578;2023-03-17T02:54:36;4.80;;;2.17;;
35488;SDS011;21602;55.670;37.578;2023-03-17T02:57:02;3.33;;;2.00;;
35488;SDS011;21602;55.670;37.578;2023-03-17T02:59:31;4.28;;;2.05;;
35488;SDS011;21602;55.670;37.578;2023-03-17T03:01:57;4.45;;;2.17;;
35488;SDS011;21602;55.670;37.578;2023-03-17T03:04:23;4.05;;;1.92;;
35488;SDS011;21602;55.670;37.578;2023-03-17T03:06:49;4.15;;;1.88;;
35488;SDS011;21602;55.670;37.578;2023-03-17T03:09:15;2.85;;;1.63;;
35488;SDS011;21602;55.670;37.578;2023-03-17T03:11:42;3.25;;;1.77;;
35488;SDS011;21602;55.670;37.578;2023-03-17T03:14:08;3.00;;;1.60;;
35488;SDS011;21602;55.670;37.578;2023-03-17T03:16:36;2.95;;;1.58;;
35488;SDS011;21602;55.670;37.578;2023-03-17T03:19:02;4.60;;;1.80;;
35488;SDS011;21602;55.670;37.578;2023-03-17T03:21:29;5.40;;;1.90;;
35488;SDS011;21602;55.670;37.578;2023-03-17T03:23:55;5.18;;;2.40;;
35488;SDS011;21602;55.670;37.578;2023-03-17T03:26:20;3.38;;;1.73;;
35488;SDS011;21602;55.670;37.578;2023-03-17T03:28:46;3.55;;;1.33;;
35488;SDS011;21602;55.670;37.578;2023-03-17T03:31:12;3.80;;;1.50;;
35488;SDS011;21602;55.670;37.578;2023-03-17T03:33:38;2.90;;;1.20;;
35488;SDS011;21602;55.670;37.578;2023-03-17T03:36:05;2.65;;;1.15;;
35488;SDS011;21602;55.670;37.578;2023-03-17T03:38:32;2.40;;;1.33;;
35488;SDS011;21602;55.670;37.578;2023-03-17T03:40:57;3.67;;;1.10;;
35488;SDS011;21602;55.670;37.578;2023-03-17T03:43:23;1.50;;;0.90;;
35488;SDS011;21602;55.670;37.578;2023-03-17T03:45:50;2.80;;;0.95;;
35488;SDS011;21602;55.670;37.578;2023-03-17T03:48:16;2.42;;;1.00;;
35488;SDS011;21602;55.670;37.578;2023-03-17T03:50:42;3.67;;;1.40;;
35488;SDS011;21602;55.670;37.578;2023-03-17T03:53:08;4.90;;;1.10;;
35488;SDS011;21602;55.670;37.578;2023-03-17T03:55:34;2.15;;;1.02;;
35488;SDS011;21602;55.670;37.578;2023-03-17T03:58:00;1.67;;;0.80;;
35488;SDS011;21602;55.670;37.578;2023-03-17T04:00:25;2.38;;;1.13;;
35488;SDS011;21602;55.670;37.578;2023-03-17T04:02:51;2.72;;;1.13;;
35488;SDS011;21602;55.670;37.578;2023-03-17T04:05:17;2.80;;;1.13;;
35488;SDS011;21602;55.670;37.578;2023-03-17T04:07:44;3.88;;;1.00;;
35488;SDS011;21602;55.670;37.578;2023-03-17T04:10:11;1.60;;;0.93;;
35488;SDS011;21602;55.670;37.578;2023-03-17T04:12:38;2.53;;;1.10;;
35488;SDS011;21602;55.670;37.578;2023-03-17T04:15:04;3.15;;;1.17;;
35488;SDS011;21602;55.670;37.578;2023-03-17T04:17:31;6.38;;;1.20;;
35488;SDS011;21602;55.670;37.578;2023-03-17T04:19:57;4.45;;;2.03;;
35488;SDS011;21602;55.670;37.578;2023-03-17T04:22:23;3.25;;;1.52;;
35488;SDS011;21602;55.670;37.578;2023-03-17T04:24:49;2.80;;;0.95;;
35488;SDS011;21602;55.670;37.578;2023-03-17T04:27:15;5.00;;;1.65;;
35488;SDS011;21602;55.670;37.578;2023-03-17T04:29:43;2.77;;;0.90;;
35488;SDS011;21602;55.670;37.578;2023-03-17T04:32:10;3.85;;;1.45;;
35488;SDS011;21602;55.670;37.578;2023-03-17T04:34:38;2.42;;;1.00;;
35488;SDS011;21602;55.670;37.578;2023-03-17T04:37:05;4.68;;;2.22;;
35488;SDS011;21602;55.670;37.578;2023-03-17T04:39:31;4.78;;;1.00;;
35488;SDS011;21602;55.670;37.578;2023-03-17T04:41:58;1.42;;;0.88;;
35488;SDS011;21602;55.670;37.578;2023-03-17T04:44:24;1.58;;;0.93;;
35488;SDS011;21602;55.670;37.578;2023-03-17T04:46:49;1.30;;;0.77;;
35488;SDS011;21602;55.670;37.578;2023-03-17T04:49:17;1.67;;;0.90;;
35488;SDS011;21602;55.670;37.578;2023-03-17T04:51:44;3.95;;;1.08;;
35488;SDS011;21602;55.670;37.578;2023-03-17T04:54:10;1.73;;;1.02;;
35488;SDS011;21602;55.670;37.578;2023-03-17T04:56:37;2.90;;;0.70;;
35488;SDS011;21602;55.670;37.578;2023-03-17T04:59:03;1.63;;;0.82;;
35488;SDS011;21602;55.670;37.578;2023-03-17T05:01:29;2.30;;;1.05;;
35488;SDS011;21602;55.670;37.578;2023-03-17T05:03:55;2.55;;;1.02;;
35488;SDS011;21602;55.670;37.578;2023-03-17T05:06:21;1.85;;;0.93;;
35488;SDS011;21602;55.670;37.578;2023-03-17T05:08:47;3.38;;;1.10;;
35488;SDS011;21602;55.670;37.578;2023-03-17T05:11:13;1.15;;;0.60;;
35488;SDS011;21602;55.670;37.578;2023-03-17T05:13:40;1.33;;;0.90;;
35488;SDS011;21602;55.670;37.578;2023-03-17T05:16:06;2.00;;;1.23;;
35488;SDS011;21602;55.670;37.578;2023-03-17T05:18:35;2.13;;;1.00;;
35488;SDS011;21602;55.670;37.578;2023-03-17T05:21:03;2.72;;;0.80;;
35488;SDS011;21602;55.670;37.578;2023-03-17T05:23:32;1.75;;;0.88;;
35488;SDS011;21602;55.670;37.578;2023-03-17T05:25:58;3.22;;;0.95;;
35488;SDS011;21602;55.670;37.578;2023-03-17T05:28:24;2.75;;;1.00;;
35488;SDS011;21602;55.670;37.578;2023-03-17T05:30:51;2.42;;;1.00;;
35488;SDS011;21602;55.670;37.578;2023-03-17T05:33:18;1.85;;;0.88;;
35488;SDS011;21602;55.670;37.578;2023-03-17T05:35:45;3.58;;;0.73;;
35488;SDS011;21602;55.670;37.578;2023-03-17T05:38:12;1.65;;;0.90;;
35488;SDS011;21602;55.670;37.578;2023-03-17T05:40:38;3.50;;;0.90;;
35488;SDS011;21602;55.670;37.578;2023-03-17T05:43:07;1.55;;;0.77;;
35488;SDS011;21602;55.670;37.578;2023-03-17T05:45:36;4.70;;;0.90;;
35488;SDS011;21602;55.670;37.578;2023-03-17T05:48:02;2.10;;;0.90;;
35488;SDS011;21602;55.670;37.578;2023-03-17T05:50:28;1.33;;;0.73;;
35488;SDS011;21602;55.670;37.578;2023-03-17T05:52:54;2.33;;;0.98;;
35488;SDS011;21602;55.670;37.578;2023-03-17T05:55:21;1.55;;;0.77;;
35488;SDS011;21602;55.670;37.578;2023-03-17T05:57:47;2.28;;;0.70;;
35488;SDS011;21602;55.670;37.578;2023-03-17T06:00:13;2.53;;;1.17;;
35488;SDS011;21602;55.670;37.578;2023-03-17T06:02:40;1.97;;;1.10;;
35488;SDS011;21602;55.670;37.578;2023-03-17T06:05:07;3.30;;;0.65;;
35488;SDS011;21602;55.670;37.578;2023-03-17T06:07:33;2.08;;;0.77;;
35488;SDS011;21602;55.670;37.578;2023-03-17T06:10:00;2.05;;;1.08;;
35488;SDS011;21602;55.670;37.578;2023-03-17T06:12:28;2.08;;;0.85;;
35488;SDS011;21602;55.670;37.578;2023-03-17T06:14:54;3.10;;;0.90;;
35488;SDS011;21602;55.670;37.578;2023-03-17T06:17:20;1.30;;;0.65;;
35488;SDS011;21602;55.670;37.578;2023-03-17T06:19:45;1.13;;;0.82;;
35488;SDS011;21602;55.670;37.578;2023-03-17T06:22:11;2.30;;;0.63;;
35488;SDS011;21602;55.670;37.578;2023-03-17T06:24:38;4.30;;;1.13;;
35488;SDS011;21602;55.670;37.578;2023-03-17T06:27:03;4.00;;;1.13;;
35488;SDS011;21602;55.670;37.578;2023-03-17T06:31:58;1.58;;;1.08;;
35488;SDS011;21602;55.670;37.578;2023-03-17T06:34:23;1.02;;;0.70;;
35488;SDS011;21602;55.670;37.578;2023-03-17T06:36:49;1.67;;;0.88;;
35488;SDS011;21602;55.670;37.578;2023-03-17T06:39:18;7.57;;;1.15;;
35488;SDS011;21602;55.670;37.578;2023-03-17T06:41:44;2.67;;;1.27;;
35488;SDS011;21602;55.670;37.578;2023-03-17T06:44:09;3.83;;;1.75;;
35488;SDS011;21602;55.670;37.578;2023-03-17T06:46:35;2.78;;;1.00;;
35488;SDS011;21602;55.670;37.578;2023-03-17T06:49:01;3.80;;;1.13;;
35488;SDS011;21602;55.670;37.578;2023-03-17T06:51:28;3.25;;;1.10;;
35488;SDS011;21602;55.670;37.578;2023-03-17T06:53:54;3.25;;;1.00;;
35488;SDS011;21602;55.670;37.578;2023-03-17T06:56:21;3.97;;;1.00;;
35488;SDS011;21602;55.670;37.578;2023-03-17T06:58:47;1.55;;;1.00;;
35488;SDS011;21602;55.670;37.578;2023-03-17T07:03:41;1.40;;;0.82;;
35488;SDS011;21602;55.670;37.578;2023-03-17T07:06:08;3.58;;;0.90;;
35488;SDS011;21602;55.670;37.578;2023-03-17T07:08:34;5.75;;;1.42;;
35488;SDS011;21602;55.670;37.578;2023-03-17T07:11:00;2.22;;;1.02;;
35488;SDS011;21602;55.670;37.578;2023-03-17T07:13:29;2.45;;;0.80;;
35488;SDS011;21602;55.670;37.578;2023-03-17T07:16:00;1.70;;;0.82;;
35488;SDS011;21602;55.670;37.578;2023-03-17T07:18:27;3.72;;;0.98;;
35488;SDS011;21602;55.670;37.578;2023-03-17T07:20:56;4.43;;;0.88;;
35488;SDS011;21602;55.670;37.578;2023-03-17T07:23:27;2.30;;;1.10;;
35488;SDS011;21602;55.670;37.578;2023-03-17T07:25:53;1.63;;;1.10;;
35488;SDS011;21602;55.670;37.578;2023-03-17T07:28:19;3.55;;;1.35;;
35488;SDS011;21602;55.670;37.578;2023-03-17T07:30:48;4.10;;;1.10;;
35488;SDS011;21602;55.670;37.578;2023-03-17T07:33:16;1.45;;;0.85;;
35488;SDS011;21602;55.670;37.578;2023-03-17T07:35:45;2.95;;;0.82;;
35488;SDS011;21602;55.670;37.578;2023-03-17T07:38:13;6.30;;;1.08;;
35488;SDS011;21602;55.670;37.578;2023-03-17T07:40:40;5.15;;;1.25;;
35488;SDS011;21602;55.670;37.578;2023-03-17T07:43:06;2.67;;;1.20;;
35488;SDS011;21602;55.670;37.578;2023-03-17T07:45:34;8.40;;;1.00;;
35488;SDS011;21602;55.670;37.578;2023-03-17T07:48:03;2.63;;;1.38;;
35488;SDS011;21602;55.670;37.578;2023-03-17T07:50:31;10.63;;;1.58;;
35488;SDS011;21602;55.670;37.578;2023-03-17T07:52:58;4.05;;;1.40;;
35488;SDS011;21602;55.670;37.578;2023-03-17T07:55:24;1.55;;;0.90;;
35488;SDS011;21602;55.670;37.578;2023-03-17T07:57:50;4.82;;;1.30;;
35488;SDS011;21602;55.670;37.578;2023-03-17T08:00:17;3.55;;;1.30;;
35488;SDS011;21602;55.670;37.578;2023-03-17T08:02:44;2.58;;;1.15;;
35488;SDS011;21602;55.670;37.578;2023-03-17T08:05:10;3.45;;;0.90;;
35488;SDS011;21602;55.670;37.578;2023-03-17T08:07:36;3.78;;;1.40;;
35488;SDS011;21602;55.670;37.578;2023-03-17T08:10:04;4.07;;;1.10;;
35488;SDS011;21602;55.670;37.578;2023-03-17T08:14:57;3.53;;;1.23;;
35488;SDS011;21602;55.670;37.578;2023-03-17T08:17:23;3.17;;;1.33;;
35488;SDS011;21602;55.670;37.578;2023-03-17T08:19:55;2.58;;;1.08;;
35488;SDS011;21602;55.670;37.578;2023-03-17T08:22:21;2.40;;;1.38;;
35488;SDS011;21602;55.670;37.578;2023-03-17T08:24:48;5.00;;;1.23;;
35488;SDS011;21602;55.670;37.578;2023-03-17T08:27:14;2.28;;;1.00;;
35488;SDS011;21602;55.670;37.578;2023-03-17T08:29:41;4.13;;;1.05;;
35488;SDS011;21602;55.670;37.578;2023-03-17T08:32:07;2.35;;;1.08;;
35488;SDS011;21602;55.670;37.578;2023-03-17T08:34:34;2.40;;;1.02;;
35488;SDS011;21602;55.670;37.578;2023-03-17T08:37:00;2.13;;;1.10;;
35488;SDS011;21602;55.670;37.578;2023-03-17T08:39:27;1.90;;;1.05;;
35488;SDS011;21602;55.670;37.578;2023-03-17T08:41:56;2.60;;;1.17;;
35488;SDS011;21602;55.670;37.578;2023-03-17T08:44:23;2.22;;;0.95;;
35488;SDS011;21602;55.670;37.578;2023-03-17T08:46:49;2.90;;;1.13;;
35488;SDS011;21602;55.670;37.578;2023-03-17T08:49:16;6.80;;;1.50;;
35488;SDS011;21602;55.670;37.578;2023-03-17T08:51:42;3.03;;;1.25;;
35488;SDS011;21602;55.670;37.578;2023-03-17T08:54:09;3.05;;;1.00;;
35488;SDS011;21602;55.670;37.578;2023-03-17T08:56:36;1.58;;;1.02;;
35488;SDS011;21602;55.670;37.578;2023-03-17T08:59:04;3.38;;;1.45;;
35488;SDS011;21602;55.670;37.578;2023-03-17T09:01:34;6.20;;;1.23;;
35488;SDS011;21602;55.670;37.578;2023-03-17T09:04:00;6.55;;;1.77;;
35488;SDS011;21602;55.670;37.578;2023-03-17T09:06:27;2.67;;;1.27;;
35488;SDS011;21602;55.670;37.578;2023-03-17T09:08:53;8.93;;;1.48;;
35488;SDS011;21602;55.670;37.578;2023-03-17T09:11:26;3.80;;;1.65;;
35488;SDS011;21602;55.670;37.578;2023-03-17T09:13:53;3.20;;;1.33;;
35488;SDS011;21602;55.670;37.578;2023-03-17T09:16:19;4.43;;;1.33;;
35488;SDS011;21602;55.670;37.578;2023-03-17T09:18:48;4.53;;;1.27;;
35488;SDS011;21602;55.670;37.578;2023-03-17T09:21:14;2.35;;;1.13;;
35488;SDS011;21602;55.670;37.578;2023-03-17T09:23:40;2.05;;;1.20;;
35488;SDS011;21602;55.670;37.578;2023-03-17T09:26:06;2.65;;;0.80;;
35488;SDS011;21602;55.670;37.578;2023-03-17T09:28:33;2.78;;;1.02;;
35488;SDS011;21602;55.670;37.578;2023-03-17T09:30:59;2.83;;;0.95;;
35488;SDS011;21602;55.670;37.578;2023-03-17T09:33:27;1.38;;;0.82;;
35488;SDS011;21602;55.670;37.578;2023-03-17T09:35:54;3.10;;;1.10;;
35488;SDS011;21602;55.670;37.578;2023-03-17T09:38:24;2.83;;;1.15;;
35488;SDS011;21602;55.670;37.578;2023-03-17T09:40:55;4.28;;;1.05;;
35488;SDS011;21602;55.670;37.578;2023-03-17T09:49:12;4.28;;;0.90;;
35488;SDS011;21602;55.670;37.578;2023-03-17T09:51:42;3.65;;;0.88;;
35488;SDS011;21602;55.670;37.578;2023-03-17T09:54:26;2.42;;;1.00;;
35488;SDS011;21602;55.670;37.578;2023-03-17T09:56:57;0.80;;;0.70;;
35488;SDS011;21602;55.670;37.578;2023-03-17T09:59:32;2.63;;;0.80;;
35488;SDS011;21602;55.670;37.578;2023-03-17T10:02:05;2.63;;;1.10;;
35488;SDS011;21602;55.670;37.578;2023-03-17T10:04:47;2.05;;;1.15;;
35488;SDS011;21602;55.670;37.578;2023-03-17T10:07:15;5.13;;;1.05;;
35488;SDS011;21602;55.670;37.578;2023-03-17T10:10:00;1.70;;;0.80;;
35488;SDS011;21602;55.670;37.578;2023-03-17T10:15:05;2.25;;;0.75;;
35488;SDS011;21602;55.670;37.578;2023-03-17T10:17:40;1.42;;;0.80;;
35488;SDS011;21602;55.670;37.578;2023-03-17T10:20:10;1.75;;;0.73;;
35488;SDS011;21602;55.670;37.578;2023-03-17T10:22:44;3.13;;;1.33;;
35488;SDS011;21602;55.670;37.578;2023-03-17T10:25:21;3.67;;;0.90;;
35488;SDS011;21602;55.670;37.578;2023-03-17T10:27:58;1.10;;;0.60;;
35488;SDS011;21602;55.670;37.578;2023-03-17T10:30:28;2.35;;;0.40;;
35488;SDS011;21602;55.670;37.578;2023-03-17T10:32:55;0.88;;;0.75;;
35488;SDS011;21602;55.670;37.578;2023-03-17T10:35:25;0.85;;;0.63;;
35488;SDS011;21602;55.670;37.578;2023-03-17T10:37:51;9.13;;;0.75;;
35488;SDS011;21602;55.670;37.578;2023-03-17T10:40:21;4.00;;;0.60;;
35488;SDS011;21602;55.670;37.578;2023-03-17T10:42:52;1.55;;;0.68;;
35488;SDS011;21602;55.670;37.578;2023-03-17T10:45:31;0.88;;;0.55;;
35488;SDS011;21602;55.670;37.578;2023-03-17T10:48:14;1.05;;;0.70;;
35488;SDS011;21602;55.670;37.578;2023-03-17T10:50:43;3.22;;;0.80;;
35488;SDS011;21602;55.670;37.578;2023-03-17T10:53:21;3.53;;;0.70;;
35488;SDS011;21602;55.670;37.578;2023-03-17T10:55:56;1.88;;;0.70;;
35488;SDS011;21602;55.670;37.578;2023-03-17T11:01:09;3.03;;;1.02;;
35488;SDS011;21602;55.670;37.578;2023-03-17T11:03:48;1.37;;;0.97;;
35488;SDS011;21602;55.670;37.578;2023-03-17T11:06:15;2.25;;;1.00;;
35488;SDS011;21602;55.670;37.578;2023-03-17T11:08:53;2.33;;;0.85;;
35488;SDS011;21602;55.670;37.578;2023-03-17T11:11:24;3.88;;;1.23;;
35488;SDS011;21602;55.670;37.578;2023-03-17T11:16:28;2.03;;;0.70;;
35488;SDS011;21602;55.670;37.578;2023-03-17T11:18:59;1.92;;;0.82;;
35488;SDS011;21602;55.670;37.578;2023-03-17T11:21:28;5.72;;;1.23;;
35488;SDS011;21602;55.670;37.578;2023-03-17T11:26:47;1.73;;;1.10;;
35488;SDS011;21602;55.670;37.578;2023-03-17T11:46:12;1.75;;;0.95;;
35488;SDS011;21602;55.670;37.578;2023-03-17T11:48:53;2.58;;;0.55;;
35488;SDS011;21602;55.670;37.578;2023-03-17T11:51:37;1.00;;;0.73;;
35488;SDS011;21602;55.670;37.578;2023-03-17T11:57:16;1.58;;;0.90;;
35488;SDS011;21602;55.670;37.578;2023-03-17T12:00:04;2.50;;;0.90;;
35488;SDS011;21602;55.670;37.578;2023-03-17T12:05:12;5.75;;;1.50;;
35488;SDS011;21602;55.670;37.578;2023-03-17T12:07:56;2.45;;;1.02;;
35488;SDS011;21602;55.670;37.578;2023-03-17T12:16:18;3.03;;;1.20;;
35488;SDS011;21602;55.670;37.578;2023-03-17T12:21:38;3.13;;;1.00;;
35488;SDS011;21602;55.670;37.578;2023-03-17T12:24:19;1.75;;;1.00;;
35488;SDS011;21602;55.670;37.578;2023-03-17T12:27:01;2.28;;;1.00;;
35488;SDS011;21602;55.670;37.578;2023-03-17T12:30:02;0.85;;;0.65;;
35488;SDS011;21602;55.670;37.578;2023-03-17T12:35:32;3.72;;;0.95;;
35488;SDS011;21602;55.670;37.578;2023-03-17T12:38:22;3.75;;;1.27;;
35488;SDS011;21602;55.670;37.578;2023-03-17T12:41:05;2.47;;;0.93;;
35488;SDS011;21602;55.670;37.578;2023-03-17T12:54:35;2.00;;;1.00;;
35488;SDS011;21602;55.670;37.578;2023-03-17T12:57:22;1.67;;;1.00;;
35488;SDS011;21602;55.670;37.578;2023-03-17T13:02:48;6.75;;;1.05;;
35488;SDS011;21602;55.670;37.578;2023-03-17T13:05:32;3.55;;;1.23;;
35488;SDS011;21602;55.670;37.578;2023-03-17T13:08:03;1.60;;;0.57;;
35488;SDS011;21602;55.670;37.578;2023-03-17T13:13:34;2.70;;;1.02;;
35488;SDS011;21602;55.670;37.578;2023-03-17T13:16:30;3.22;;;1.17;;
35488;SDS011;21602;55.670;37.578;2023-03-17T13:19:31;1.10;;;0.68;;
35488;SDS011;21602;55.670;37.578;2023-03-17T13:27:57;3.83;;;0.80;;
35488;SDS011;21602;55.670;37.578;2023-03-17T13:29:59;1.27;;;0.75;;
35488;SDS011;21602;55.670;37.578;2023-03-17T13:32:56;12.85;;;1.17;;
35488;SDS011;21602;55.670;37.578;2023-03-17T13:38:29;4.70;;;1.10;;
35488;SDS011;21602;55.670;37.578;2023-03-17T13:49:43;1.52;;;0.60;;
35488;SDS011;21602;55.670;37.578;2023-03-17T13:54:31;2.47;;;0.77;;
35488;SDS011;21602;55.670;37.578;2023-03-17T14:02:19;7.40;;;1.42;;
35488;SDS011;21602;55.670;37.578;2023-03-17T14:05:02;1.73;;;0.90;;
35488;SDS011;21602;55.670;37.578;2023-03-17T14:07:47;2.42;;;0.93;;
35488;SDS011;21602;55.670;37.578;2023-03-17T14:10:20;1.60;;;0.80;;
35488;SDS011;21602;55.670;37.578;2023-03-17T14:12:51;1.88;;;0.80;;
35488;SDS011;21602;55.670;37.578;2023-03-17T14:18:33;2.15;;;1.50;;
35488;SDS011;21602;55.670;37.578;2023-03-17T14:21:05;3.05;;;0.75;;
35488;SDS011;21602;55.670;37.578;2023-03-17T14:23:51;2.45;;;1.20;;
35488;SDS011;21602;55.670;37.578;2023-03-17T14:26:21;0.88;;;0.52;;
35488;SDS011;21602;55.670;37.578;2023-03-17T14:29:01;4.63;;;0.80;;
35488;SDS011;21602;55.670;37.578;2023-03-17T14:31:29;1.23;;;0.77;;
35488;SDS011;21602;55.670;37.578;2023-03-17T14:33:56;1.88;;;0.77;;
35488;SDS011;21602;55.670;37.578;2023-03-17T14:36:24;1.45;;;0.80;;
35488;SDS011;21602;55.670;37.578;2023-03-17T14:38:53;13.82;;;1.00;;
35488;SDS011;21602;55.670;37.578;2023-03-17T14:43:48;1.75;;;1.10;;
35488;SDS011;21602;55.670;37.578;2023-03-17T14:48:58;2.17;;;1.00;;
35488;SDS011;21602;55.670;37.578;2023-03-17T14:53:55;3.90;;;0.73;;
35488;SDS011;21602;55.670;37.578;2023-03-17T14:56:34;2.30;;;0.90;;
35488;SDS011;21602;55.670;37.578;2023-03-17T14:59:15;6.55;;;1.27;;
35488;SDS011;21602;55.670;37.578;2023-03-17T15:01:57;3.10;;;1.08;;
35488;SDS011;21602;55.670;37.578;2023-03-17T15:04:26;3.33;;;0.80;;
35488;SDS011;21602;55.670;37.578;2023-03-17T15:07:01;6.30;;;0.98;;
35488;SDS011;21602;55.670;37.578;2023-03-17T15:09:34;3.78;;;1.00;;
35488;SDS011;21602;55.670;37.578;2023-03-17T15:14:49;1.85;;;0.60;;
35488;SDS011;21602;55.670;37.578;2023-03-17T15:17:33;1.50;;;0.57;;
35488;SDS011;21602;55.670;37.578;2023-03-17T15:20:03;4.18;;;1.00;;
35488;SDS011;21602;55.670;37.578;2023-03-17T15:22:38;2.63;;;0.90;;
35488;SDS011;21602;55.670;37.578;2023-03-17T15:28:11;3.10;;;0.70;;
35488;SDS011;21602;55.670;37.578;2023-03-17T15:30:39;1.65;;;0.90;;
35488;SDS011;21602;55.670;37.578;2023-03-17T15:33:20;1.20;;;0.93;;
35488;SDS011;21602;55.670;37.578;2023-03-17T15:35:48;1.30;;;0.80;;
35488;SDS011;21602;55.670;37.578;2023-03-17T15:38:14;1.23;;;0.70;;
35488;SDS011;21602;55.670;37.578;2023-03-17T15:40:41;1.67;;;0.93;;
35488;SDS011;21602;55.670;37.578;2023-03-17T15:43:07;6.07;;;1.05;;
35488;SDS011;21602;55.670;37.578;2023-03-17T15:45:38;3.70;;;0.95;;
35488;SDS011;21602;55.670;37.578;2023-03-17T15:48:07;3.30;;;0.82;;
35488;SDS011;21602;55.670;37.578;2023-03-17T15:50:50;1.52;;;0.80;;
35488;SDS011;21602;55.670;37.578;2023-03-17T15:53:17;2.90;;;0.82;;
35488;SDS011;21602;55.670;37.578;2023-03-17T15:55:47;3.85;;;0.90;;
35488;SDS011;21602;55.670;37.578;2023-03-17T15:58:13;2.33;;;1.02;;
35488;SDS011;21602;55.670;37.578;2023-03-17T16:00:40;2.00;;;0.90;;
35488;SDS011;21602;55.670;37.578;2023-03-17T16:03:10;6.25;;;1.10;;
35488;SDS011;21602;55.670;37.578;2023-03-17T16:05:47;2.72;;;1.15;;
35488;SDS011;21602;55.670;37.578;2023-03-17T16:08:13;2.05;;;1.02;;
35488;SDS011;21602;55.670;37.578;2023-03-17T16:10:42;4.60;;;1.30;;
35488;SDS011;21602;55.670;37.578;2023-03-17T16:13:09;1.67;;;1.05;;
35488;SDS011;21602;55.670;37.578;2023-03-17T16:15:36;4.90;;;1.52;;
35488;SDS011;21602;55.670;37.578;2023-03-17T16:18:06;4.20;;;1.52;;
35488;SDS011;21602;55.670;37.578;2023-03-17T16:20:39;1.63;;;1.08;;
35488;SDS011;21602;55.670;37.578;2023-03-17T16:23:26;4.10;;;1.30;;
35488;SDS011;21602;55.670;37.578;2023-03-17T16:25:55;2.55;;;1.00;;
35488;SDS011;21602;55.670;37.578;2023-03-17T16:28:25;3.35;;;1.27;;
35488;SDS011;21602;55.670;37.578;2023-03-17T16:30:53;4.85;;;1.27;;
35488;SDS011;21602;55.670;37.578;2023-03-17T16:33:21;4.32;;;1.27;;
35488;SDS011;21602;55.670;37.578;2023-03-17T16:35:50;3.15;;;1.25;;
35488;SDS011;21602;55.670;37.578;2023-03-17T16:38:18;2.50;;;1.20;;
35488;SDS011;21602;55.670;37.578;2023-03-17T16:40:47;1.95;;;1.23;;
35488;SDS011;21602;55.670;37.578;2023-03-17T16:43:23;2.75;;;1.50;;
35488;SDS011;21602;55.670;37.578;2023-03-17T16:45:51;7.68;;;1.42;;
35488;SDS011;21602;55.670;37.578;2023-03-17T16:50:45;2.22;;;1.10;;
35488;SDS011;21602;55.670;37.578;2023-03-17T16:53:11;2.97;;;0.98;;